LFMV/AVN METAR and TAF weather

Enter ICAO airport designator
Station Type Date Time Source
LFMV METAR 2020/04/07 17:30 UTC NOAA

LFMV 071730Z AUTO 21006KT CAVOK 18/05 Q1026


Station Type Date Time Source
LFMV Decoded METAR 2020/04/07 17:30 UTC NOAA

Station name not available
Apr 07, 2020 - 01:30 PM EDT / 2020.04.07 1730 UTC
Wind: from the SSW (210 degrees) at 7 MPH (6 KT):0
Visibility: greater than 7 mile(s):0
Temperature: 64 F (18 C)
Dew Point: 41 F (5 C)
Relative Humidity: 42%
Pressure (altimeter): 30.30 in. Hg (1026 hPa)
ob: LFMV 071730Z AUTO 21006KT CAVOK 18/05 Q1026
cycle: 17

Station Type Date Time Source
LFMV TAF 2020/03/24 03:00 UTC NOAA

TAF LFMV 240200Z 2403/2503 VRB04KT 9999 BKN030
TEMPO 2406/2421 -RA

Example: see airport list